sensor_id;sensor_type;location;lat;lon;timestamp;temperature;humidity
5278;DHT22;2662;51.194;6.614;2022-08-19T00:01:14;20.70;99.90
5278;DHT22;2662;51.194;6.614;2022-08-19T00:03:40;20.70;99.90
5278;DHT22;2662;51.194;6.614;2022-08-19T00:06:07;20.70;99.90
5278;DHT22;2662;51.194;6.614;2022-08-19T00:08:35;20.70;99.90
5278;DHT22;2662;51.194;6.614;2022-08-19T00:11:02;20.70;99.90
5278;DHT22;2662;51.194;6.614;2022-08-19T00:13:29;20.70;99.90
5278;DHT22;2662;51.194;6.614;2022-08-19T00:15:57;20.70;99.90
5278;DHT22;2662;51.194;6.614;2022-08-19T00:18:26;20.70;99.90
5278;DHT22;2662;51.194;6.614;2022-08-19T00:20:53;20.70;99.90
5278;DHT22;2662;51.194;6.614;2022-08-19T00:23:20;20.70;99.90
5278;DHT22;2662;51.194;6.614;2022-08-19T00:25:47;20.60;99.90
5278;DHT22;2662;51.194;6.614;2022-08-19T00:28:14;20.60;99.90
5278;DHT22;2662;51.194;6.614;2022-08-19T00:30:41;20.60;99.90
5278;DHT22;2662;51.194;6.614;2022-08-19T00:33:09;20.50;99.90
5278;DHT22;2662;51.194;6.614;2022-08-19T00:35:36;20.50;99.90
5278;DHT22;2662;51.194;6.614;2022-08-19T00:38:04;20.40;99.90
5278;DHT22;2662;51.194;6.614;2022-08-19T00:40:32;20.30;99.90
5278;DHT22;2662;51.194;6.614;2022-08-19T00:42:59;20.30;99.90
5278;DHT22;2662;51.194;6.614;2022-08-19T00:45:27;20.20;99.90
5278;DHT22;2662;51.194;6.614;2022-08-19T00:47:55;20.20;99.90
5278;DHT22;2662;51.194;6.614;2022-08-19T00:50:24;20.20;99.90
5278;DHT22;2662;51.194;6.614;2022-08-19T00:52:51;20.20;99.90
5278;DHT22;2662;51.194;6.614;2022-08-19T00:55:22;20.20;99.90
5278;DHT22;2662;51.194;6.614;2022-08-19T00:57:56;20.20;99.90
5278;DHT22;2662;51.194;6.614;2022-08-19T01:00:26;20.20;99.90
5278;DHT22;2662;51.194;6.614;2022-08-19T01:02:54;20.20;99.90
5278;DHT22;2662;51.194;6.614;2022-08-19T01:05:25;20.20;99.90
5278;DHT22;2662;51.194;6.614;2022-08-19T01:07:53;20.20;99.90
5278;DHT22;2662;51.194;6.614;2022-08-19T01:10:23;20.20;99.90
5278;DHT22;2662;51.194;6.614;2022-08-19T01:12:52;20.20;99.90
5278;DHT22;2662;51.194;6.614;2022-08-19T01:15:23;20.10;99.90
5278;DHT22;2662;51.194;6.614;2022-08-19T01:17:53;20.10;99.90
5278;DHT22;2662;51.194;6.614;2022-08-19T01:20:23;20.00;99.90
5278;DHT22;2662;51.194;6.614;2022-08-19T01:22:54;20.00;99.90
5278;DHT22;2662;51.194;6.614;2022-08-19T01:25:25;19.90;99.90
5278;DHT22;2662;51.194;6.614;2022-08-19T01:27:53;19.90;99.90
5278;DHT22;2662;51.194;6.614;2022-08-19T01:30:23;19.90;99.90
5278;DHT22;2662;51.194;6.614;2022-08-19T01:32:51;19.90;99.90
5278;DHT22;2662;51.194;6.614;2022-08-19T01:35:18;19.80;99.90
5278;DHT22;2662;51.194;6.614;2022-08-19T01:37:47;19.80;99.90
5278;DHT22;2662;51.194;6.614;2022-08-19T01:40:17;19.80;99.90
5278;DHT22;2662;51.194;6.614;2022-08-19T01:42:45;19.70;99.90
5278;DHT22;2662;51.194;6.614;2022-08-19T01:45:13;19.70;99.90
5278;DHT22;2662;51.194;6.614;2022-08-19T01:47:40;19.60;99.90
5278;DHT22;2662;51.194;6.614;2022-08-19T01:50:08;19.60;99.90
5278;DHT22;2662;51.194;6.614;2022-08-19T01:52:36;19.60;99.90
5278;DHT22;2662;51.194;6.614;2022-08-19T01:55:04;19.60;99.90
5278;DHT22;2662;51.194;6.614;2022-08-19T01:57:33;19.60;99.90
5278;DHT22;2662;51.194;6.614;2022-08-19T02:00:00;19.60;99.90
5278;DHT22;2662;51.194;6.614;2022-08-19T02:02:28;19.50;99.90
5278;DHT22;2662;51.194;6.614;2022-08-19T02:04:55;19.50;99.90
5278;DHT22;2662;51.194;6.614;2022-08-19T02:07:21;19.40;99.90
5278;DHT22;2662;51.194;6.614;2022-08-19T02:09:48;19.40;99.90
5278;DHT22;2662;51.194;6.614;2022-08-19T02:12:15;19.30;99.90
5278;DHT22;2662;51.194;6.614;2022-08-19T02:14:44;19.30;99.90
5278;DHT22;2662;51.194;6.614;2022-08-19T02:17:10;19.30;99.90
5278;DHT22;2662;51.194;6.614;2022-08-19T02:19:37;19.30;99.90
5278;DHT22;2662;51.194;6.614;2022-08-19T02:22:04;19.30;99.90
5278;DHT22;2662;51.194;6.614;2022-08-19T02:24:31;19.30;99.90
5278;DHT22;2662;51.194;6.614;2022-08-19T02:26:58;19.30;99.90
5278;DHT22;2662;51.194;6.614;2022-08-19T02:29:25;19.30;99.90
5278;DHT22;2662;51.194;6.614;2022-08-19T02:31:53;19.30;99.90
5278;DHT22;2662;51.194;6.614;2022-08-19T02:34:20;19.30;99.90
5278;DHT22;2662;51.194;6.614;2022-08-19T02:36:46;19.30;99.90
5278;DHT22;2662;51.194;6.614;2022-08-19T02:39:13;19.30;99.90
5278;DHT22;2662;51.194;6.614;2022-08-19T02:41:39;19.20;99.90
5278;DHT22;2662;51.194;6.614;2022-08-19T02:44:06;19.30;99.90
5278;DHT22;2662;51.194;6.614;2022-08-19T02:46:33;19.20;99.90
5278;DHT22;2662;51.194;6.614;2022-08-19T02:49:04;19.20;99.90
5278;DHT22;2662;51.194;6.614;2022-08-19T02:51:33;19.20;99.90
5278;DHT22;2662;51.194;6.614;2022-08-19T02:54:00;19.20;99.90
5278;DHT22;2662;51.194;6.614;2022-08-19T02:56:27;19.20;99.90
5278;DHT22;2662;51.194;6.614;2022-08-19T02:58:54;19.20;99.90
5278;DHT22;2662;51.194;6.614;2022-08-19T03:01:22;19.20;99.90
5278;DHT22;2662;51.194;6.614;2022-08-19T03:03:50;19.20;99.90
5278;DHT22;2662;51.194;6.614;2022-08-19T03:06:18;19.30;99.90
5278;DHT22;2662;51.194;6.614;2022-08-19T03:08:47;19.30;99.90
5278;DHT22;2662;51.194;6.614;2022-08-19T03:11:17;19.30;99.90
5278;DHT22;2662;51.194;6.614;2022-08-19T03:13:45;19.20;99.90
5278;DHT22;2662;51.194;6.614;2022-08-19T03:16:12;19.20;99.90
5278;DHT22;2662;51.194;6.614;2022-08-19T03:18:39;19.20;99.90
5278;DHT22;2662;51.194;6.614;2022-08-19T03:21:06;19.10;99.90
5278;DHT22;2662;51.194;6.614;2022-08-19T03:23:35;19.10;99.90
5278;DHT22;2662;51.194;6.614;2022-08-19T03:26:04;19.10;99.90
5278;DHT22;2662;51.194;6.614;2022-08-19T03:28:31;19.10;99.90
5278;DHT22;2662;51.194;6.614;2022-08-19T03:31:02;19.10;99.90
5278;DHT22;2662;51.194;6.614;2022-08-19T03:33:30;19.10;99.90
5278;DHT22;2662;51.194;6.614;2022-08-19T03:36:03;19.10;99.90
5278;DHT22;2662;51.194;6.614;2022-08-19T03:38:31;19.10;99.90
5278;DHT22;2662;51.194;6.614;2022-08-19T03:41:02;19.10;99.90
5278;DHT22;2662;51.194;6.614;2022-08-19T03:43:32;19.10;99.90
5278;DHT22;2662;51.194;6.614;2022-08-19T03:46:00;19.10;99.90
5278;DHT22;2662;51.194;6.614;2022-08-19T03:48:28;19.10;99.90
5278;DHT22;2662;51.194;6.614;2022-08-19T03:50:56;19.00;99.90
5278;DHT22;2662;51.194;6.614;2022-08-19T03:53:23;19.10;99.90
5278;DHT22;2662;51.194;6.614;2022-08-19T03:55:51;19.00;99.90
5278;DHT22;2662;51.194;6.614;2022-08-19T03:58:19;19.00;99.90
5278;DHT22;2662;51.194;6.614;2022-08-19T04:00:46;19.00;99.90
5278;DHT22;2662;51.194;6.614;2022-08-19T04:03:13;18.90;99.90
5278;DHT22;2662;51.194;6.614;2022-08-19T04:05:40;18.90;99.90
5278;DHT22;2662;51.194;6.614;2022-08-19T04:08:07;18.80;99.90
5278;DHT22;2662;51.194;6.614;2022-08-19T04:10:36;18.90;99.90
5278;DHT22;2662;51.194;6.614;2022-08-19T04:13:04;18.90;99.90
5278;DHT22;2662;51.194;6.614;2022-08-19T04:15:38;18.80;99.90
5278;DHT22;2662;51.194;6.614;2022-08-19T04:18:07;18.80;99.90
5278;DHT22;2662;51.194;6.614;2022-08-19T04:20:39;18.80;99.90
5278;DHT22;2662;51.194;6.614;2022-08-19T04:23:06;18.80;99.90
5278;DHT22;2662;51.194;6.614;2022-08-19T04:25:36;18.80;99.90
5278;DHT22;2662;51.194;6.614;2022-08-19T04:28:04;18.80;99.90
5278;DHT22;2662;51.194;6.614;2022-08-19T04:30:30;18.80;99.90
5278;DHT22;2662;51.194;6.614;2022-08-19T04:32:59;18.80;99.90
5278;DHT22;2662;51.194;6.614;2022-08-19T04:35:25;18.70;99.90
5278;DHT22;2662;51.194;6.614;2022-08-19T04:37:52;18.80;99.90
5278;DHT22;2662;51.194;6.614;2022-08-19T04:40:19;18.80;99.90
5278;DHT22;2662;51.194;6.614;2022-08-19T04:43:03;18.80;99.90
5278;DHT22;2662;51.194;6.614;2022-08-19T04:45:30;18.80;99.90
5278;DHT22;2662;51.194;6.614;2022-08-19T04:47:58;18.90;99.90
5278;DHT22;2662;51.194;6.614;2022-08-19T04:50:27;18.90;99.90
5278;DHT22;2662;51.194;6.614;2022-08-19T04:52:54;18.90;99.90
5278;DHT22;2662;51.194;6.614;2022-08-19T04:55:21;19.00;99.90
5278;DHT22;2662;51.194;6.614;2022-08-19T04:57:48;19.00;99.90
5278;DHT22;2662;51.194;6.614;2022-08-19T05:00:16;19.10;99.90
5278;DHT22;2662;51.194;6.614;2022-08-19T05:02:42;19.10;99.90
5278;DHT22;2662;51.194;6.614;2022-08-19T05:05:11;19.20;99.90
5278;DHT22;2662;51.194;6.614;2022-08-19T05:07:38;19.30;99.90
5278;DHT22;2662;51.194;6.614;2022-08-19T05:10:07;19.40;99.90
5278;DHT22;2662;51.194;6.614;2022-08-19T05:12:33;19.50;99.90
5278;DHT22;2662;51.194;6.614;2022-08-19T05:15:02;19.60;99.90
5278;DHT22;2662;51.194;6.614;2022-08-19T05:17:29;19.70;99.90
5278;DHT22;2662;51.194;6.614;2022-08-19T05:19:56;19.80;99.90
5278;DHT22;2662;51.194;6.614;2022-08-19T05:22:44;19.80;99.90
5278;DHT22;2662;51.194;6.614;2022-08-19T05:25:14;19.90;99.90
5278;DHT22;2662;51.194;6.614;2022-08-19T05:27:41;20.00;99.90
5278;DHT22;2662;51.194;6.614;2022-08-19T05:30:09;20.10;99.90
5278;DHT22;2662;51.194;6.614;2022-08-19T05:32:37;20.10;99.90
5278;DHT22;2662;51.194;6.614;2022-08-19T05:35:04;20.20;99.90
5278;DHT22;2662;51.194;6.614;2022-08-19T05:37:32;20.40;99.90
5278;DHT22;2662;51.194;6.614;2022-08-19T05:40:01;20.60;99.90
5278;DHT22;2662;51.194;6.614;2022-08-19T05:42:28;20.90;99.90
5278;DHT22;2662;51.194;6.614;2022-08-19T05:44:55;21.10;99.90
5278;DHT22;2662;51.194;6.614;2022-08-19T05:47:22;21.30;99.90
5278;DHT22;2662;51.194;6.614;2022-08-19T05:49:49;21.40;99.90
5278;DHT22;2662;51.194;6.614;2022-08-19T05:52:16;21.70;99.90
5278;DHT22;2662;51.194;6.614;2022-08-19T05:54:43;22.00;99.90
5278;DHT22;2662;51.194;6.614;2022-08-19T05:57:15;22.90;99.90
5278;DHT22;2662;51.194;6.614;2022-08-19T05:59:42;24.00;99.90
5278;DHT22;2662;51.194;6.614;2022-08-19T06:02:11;24.70;99.90
5278;DHT22;2662;51.194;6.614;2022-08-19T06:04:38;24.90;99.90
5278;DHT22;2662;51.194;6.614;2022-08-19T06:07:08;24.80;99.90
5278;DHT22;2662;51.194;6.614;2022-08-19T06:09:34;24.80;99.90
5278;DHT22;2662;51.194;6.614;2022-08-19T06:12:03;25.30;99.90
5278;DHT22;2662;51.194;6.614;2022-08-19T06:14:33;26.20;99.90
5278;DHT22;2662;51.194;6.614;2022-08-19T06:17:01;27.10;99.90
5278;DHT22;2662;51.194;6.614;2022-08-19T06:19:29;28.40;99.90
5278;DHT22;2662;51.194;6.614;2022-08-19T06:21:58;29.80;99.90
5278;DHT22;2662;51.194;6.614;2022-08-19T06:24:27;30.90;99.90
5278;DHT22;2662;51.194;6.614;2022-08-19T06:26:56;31.80;99.90
5278;DHT22;2662;51.194;6.614;2022-08-19T06:29:25;32.50;99.90
5278;DHT22;2662;51.194;6.614;2022-08-19T06:31:56;32.90;99.90
5278;DHT22;2662;51.194;6.614;2022-08-19T06:34:24;33.10;99.90
5278;DHT22;2662;51.194;6.614;2022-08-19T06:36:53;33.20;99.90
5278;DHT22;2662;51.194;6.614;2022-08-19T06:39:22;33.20;99.90
5278;DHT22;2662;51.194;6.614;2022-08-19T06:41:50;33.00;99.90
5278;DHT22;2662;51.194;6.614;2022-08-19T06:44:18;33.20;99.90
5278;DHT22;2662;51.194;6.614;2022-08-19T06:46:45;33.00;99.90
5278;DHT22;2662;51.194;6.614;2022-08-19T06:49:16;33.00;99.90
5278;DHT22;2662;51.194;6.614;2022-08-19T06:51:44;33.40;99.90
5278;DHT22;2662;51.194;6.614;2022-08-19T06:54:13;33.10;99.90
5278;DHT22;2662;51.194;6.614;2022-08-19T06:56:40;33.70;99.90
5278;DHT22;2662;51.194;6.614;2022-08-19T06:59:08;34.10;99.90
5278;DHT22;2662;51.194;6.614;2022-08-19T07:01:36;34.20;99.90
5278;DHT22;2662;51.194;6.614;2022-08-19T07:04:04;33.90;99.90
5278;DHT22;2662;51.194;6.614;2022-08-19T07:06:33;33.70;99.90
5278;DHT22;2662;51.194;6.614;2022-08-19T07:08:59;33.70;99.90
5278;DHT22;2662;51.194;6.614;2022-08-19T07:11:27;34.00;99.90
5278;DHT22;2662;51.194;6.614;2022-08-19T07:13:53;34.20;99.90
5278;DHT22;2662;51.194;6.614;2022-08-19T07:16:21;34.70;99.40
5278;DHT22;2662;51.194;6.614;2022-08-19T07:18:48;34.80;99.20
5278;DHT22;2662;51.194;6.614;2022-08-19T07:21:17;34.50;99.20
5278;DHT22;2662;51.194;6.614;2022-08-19T07:23:46;34.40;99.30
5278;DHT22;2662;51.194;6.614;2022-08-19T07:26:14;33.40;99.90
5278;DHT22;2662;51.194;6.614;2022-08-19T07:28:42;32.50;99.90
5278;DHT22;2662;51.194;6.614;2022-08-19T07:31:10;31.00;99.90
5278;DHT22;2662;51.194;6.614;2022-08-19T07:33:38;30.00;99.90
5278;DHT22;2662;51.194;6.614;2022-08-19T07:36:06;29.10;99.90
5278;DHT22;2662;51.194;6.614;2022-08-19T07:38:37;28.50;99.90
5278;DHT22;2662;51.194;6.614;2022-08-19T07:41:06;28.60;99.90
5278;DHT22;2662;51.194;6.614;2022-08-19T07:43:33;28.50;99.90
5278;DHT22;2662;51.194;6.614;2022-08-19T07:46:00;28.30;99.90
5278;DHT22;2662;51.194;6.614;2022-08-19T07:48:27;28.50;99.90
5278;DHT22;2662;51.194;6.614;2022-08-19T07:50:56;29.40;99.90
5278;DHT22;2662;51.194;6.614;2022-08-19T07:53:25;30.70;99.90
5278;DHT22;2662;51.194;6.614;2022-08-19T07:55:51;31.60;99.90
5278;DHT22;2662;51.194;6.614;2022-08-19T07:58:21;32.40;99.90
5278;DHT22;2662;51.194;6.614;2022-08-19T08:00:50;33.20;99.90
5278;DHT22;2662;51.194;6.614;2022-08-19T08:03:20;34.10;99.90
5278;DHT22;2662;51.194;6.614;2022-08-19T08:06:07;34.10;99.90
5278;DHT22;2662;51.194;6.614;2022-08-19T08:08:51;34.10;99.90
5278;DHT22;2662;51.194;6.614;2022-08-19T08:11:36;34.10;99.90
5278;DHT22;2662;51.194;6.614;2022-08-19T08:14:05;34.00;99.90
5278;DHT22;2662;51.194;6.614;2022-08-19T08:16:34;34.00;99.80
5278;DHT22;2662;51.194;6.614;2022-08-19T08:19:03;34.30;99.90
5278;DHT22;2662;51.194;6.614;2022-08-19T08:21:31;34.70;98.80
5278;DHT22;2662;51.194;6.614;2022-08-19T08:23:58;34.10;98.70
5278;DHT22;2662;51.194;6.614;2022-08-19T08:26:25;33.20;99.10
5278;DHT22;2662;51.194;6.614;2022-08-19T08:28:53;32.30;99.80
5278;DHT22;2662;51.194;6.614;2022-08-19T08:31:21;31.30;99.90
5278;DHT22;2662;51.194;6.614;2022-08-19T08:33:49;30.40;99.90
5278;DHT22;2662;51.194;6.614;2022-08-19T08:36:16;30.40;99.90
5278;DHT22;2662;51.194;6.614;2022-08-19T08:38:44;30.30;99.90
5278;DHT22;2662;51.194;6.614;2022-08-19T08:41:18;30.60;99.90
5278;DHT22;2662;51.194;6.614;2022-08-19T08:43:50;31.10;99.90
5278;DHT22;2662;51.194;6.614;2022-08-19T08:46:23;31.70;99.90
5278;DHT22;2662;51.194;6.614;2022-08-19T08:48:56;32.50;99.90
5278;DHT22;2662;51.194;6.614;2022-08-19T08:51:29;33.30;99.50
5278;DHT22;2662;51.194;6.614;2022-08-19T08:53:59;33.80;96.80
5278;DHT22;2662;51.194;6.614;2022-08-19T08:56:26;33.90;95.90
5278;DHT22;2662;51.194;6.614;2022-08-19T08:58:57;34.10;95.70
5278;DHT22;2662;51.194;6.614;2022-08-19T09:01:26;34.20;95.90
5278;DHT22;2662;51.194;6.614;2022-08-19T09:03:53;34.10;95.50
5278;DHT22;2662;51.194;6.614;2022-08-19T09:06:33;33.30;95.80
5278;DHT22;2662;51.194;6.614;2022-08-19T09:09:05;33.00;96.30
5278;DHT22;2662;51.194;6.614;2022-08-19T09:11:48;32.80;96.50
5278;DHT22;2662;51.194;6.614;2022-08-19T09:14:31;33.10;96.30
5278;DHT22;2662;51.194;6.614;2022-08-19T09:17:00;33.30;96.10
5278;DHT22;2662;51.194;6.614;2022-08-19T09:19:29;33.00;95.90
5278;DHT22;2662;51.194;6.614;2022-08-19T09:21:56;33.50;95.90
5278;DHT22;2662;51.194;6.614;2022-08-19T09:24:23;34.20;94.80
5278;DHT22;2662;51.194;6.614;2022-08-19T09:26:50;34.60;93.70
5278;DHT22;2662;51.194;6.614;2022-08-19T09:29:17;35.20;93.30
5278;DHT22;2662;51.194;6.614;2022-08-19T09:31:43;35.10;92.80
5278;DHT22;2662;51.194;6.614;2022-08-19T09:34:12;35.00;92.70
5278;DHT22;2662;51.194;6.614;2022-08-19T09:36:38;34.60;92.50
5278;DHT22;2662;51.194;6.614;2022-08-19T09:39:06;34.90;93.00
5278;DHT22;2662;51.194;6.614;2022-08-19T09:41:33;35.50;92.60
5278;DHT22;2662;51.194;6.614;2022-08-19T09:44:00;35.20;92.60
5278;DHT22;2662;51.194;6.614;2022-08-19T09:46:28;35.40;91.90
5278;DHT22;2662;51.194;6.614;2022-08-19T09:49:00;34.80;91.60
5278;DHT22;2662;51.194;6.614;2022-08-19T09:51:28;34.10;92.10
5278;DHT22;2662;51.194;6.614;2022-08-19T09:53:59;33.20;92.60
5278;DHT22;2662;51.194;6.614;2022-08-19T09:56:27;32.50;93.30
5278;DHT22;2662;51.194;6.614;2022-08-19T09:58:53;32.00;94.00
5278;DHT22;2662;51.194;6.614;2022-08-19T10:01:23;31.80;94.60
5278;DHT22;2662;51.194;6.614;2022-08-19T10:03:52;32.30;94.60
5278;DHT22;2662;51.194;6.614;2022-08-19T10:06:19;32.60;94.30
5278;DHT22;2662;51.194;6.614;2022-08-19T10:08:48;32.90;93.80
5278;DHT22;2662;51.194;6.614;2022-08-19T10:11:15;32.80;93.80
5278;DHT22;2662;51.194;6.614;2022-08-19T10:13:43;33.10;93.80
5278;DHT22;2662;51.194;6.614;2022-08-19T10:16:13;33.10;93.50
5278;DHT22;2662;51.194;6.614;2022-08-19T10:18:41;33.50;93.70
5278;DHT22;2662;51.194;6.614;2022-08-19T10:21:11;33.10;93.70
5278;DHT22;2662;51.194;6.614;2022-08-19T10:23:40;32.90;94.20
5278;DHT22;2662;51.194;6.614;2022-08-19T10:26:13;32.70;93.90
5278;DHT22;2662;51.194;6.614;2022-08-19T10:28:40;32.30;94.50
5278;DHT22;2662;51.194;6.614;2022-08-19T10:31:09;32.30;94.90
5278;DHT22;2662;51.194;6.614;2022-08-19T10:33:37;32.30;94.80
5278;DHT22;2662;51.194;6.614;2022-08-19T10:36:07;32.50;94.80
5278;DHT22;2662;51.194;6.614;2022-08-19T10:38:35;33.00;94.80
5278;DHT22;2662;51.194;6.614;2022-08-19T10:41:11;33.10;94.50
5278;DHT22;2662;51.194;6.614;2022-08-19T10:43:39;33.10;94.00
5278;DHT22;2662;51.194;6.614;2022-08-19T10:46:06;32.50;94.10
5278;DHT22;2662;51.194;6.614;2022-08-19T10:48:34;32.00;94.90
5278;DHT22;2662;51.194;6.614;2022-08-19T10:51:02;31.60;95.20
5278;DHT22;2662;51.194;6.614;2022-08-19T10:53:46;31.30;95.60
5278;DHT22;2662;51.194;6.614;2022-08-19T10:56:14;31.20;95.80
5278;DHT22;2662;51.194;6.614;2022-08-19T10:58:59;30.90;95.80
5278;DHT22;2662;51.194;6.614;2022-08-19T11:01:27;30.40;96.10
5278;DHT22;2662;51.194;6.614;2022-08-19T11:03:55;30.60;96.40
5278;DHT22;2662;51.194;6.614;2022-08-19T11:06:23;30.70;96.40
5278;DHT22;2662;51.194;6.614;2022-08-19T11:08:51;30.60;96.30
5278;DHT22;2662;51.194;6.614;2022-08-19T11:11:19;30.70;96.50
5278;DHT22;2662;51.194;6.614;2022-08-19T11:13:47;30.90;96.50
5278;DHT22;2662;51.194;6.614;2022-08-19T11:16:16;30.80;96.80
5278;DHT22;2662;51.194;6.614;2022-08-19T11:18:45;30.90;96.10
5278;DHT22;2662;51.194;6.614;2022-08-19T11:21:15;30.90;95.80
5278;DHT22;2662;51.194;6.614;2022-08-19T11:23:45;31.10;95.70
5278;DHT22;2662;51.194;6.614;2022-08-19T11:26:12;31.10;95.30
5278;DHT22;2662;51.194;6.614;2022-08-19T11:28:41;30.80;95.70
5278;DHT22;2662;51.194;6.614;2022-08-19T11:31:12;30.70;96.20
5278;DHT22;2662;51.194;6.614;2022-08-19T11:33:40;30.80;96.20
5278;DHT22;2662;51.194;6.614;2022-08-19T11:36:08;30.90;96.20
5278;DHT22;2662;51.194;6.614;2022-08-19T11:38:35;31.00;95.50
5278;DHT22;2662;51.194;6.614;2022-08-19T11:41:04;31.10;95.10
5278;DHT22;2662;51.194;6.614;2022-08-19T11:43:33;30.80;94.00
5278;DHT22;2662;51.194;6.614;2022-08-19T11:46:04;30.30;94.80
5278;DHT22;2662;51.194;6.614;2022-08-19T11:48:32;30.20;95.20
5278;DHT22;2662;51.194;6.614;2022-08-19T11:50:59;30.00;95.10
5278;DHT22;2662;51.194;6.614;2022-08-19T11:53:25;30.00;95.50
5278;DHT22;2662;51.194;6.614;2022-08-19T11:55:53;30.00;95.50
5278;DHT22;2662;51.194;6.614;2022-08-19T11:58:21;30.00;95.80
5278;DHT22;2662;51.194;6.614;2022-08-19T12:00:48;29.90;96.10
5278;DHT22;2662;51.194;6.614;2022-08-19T12:03:16;30.10;96.50
5278;DHT22;2662;51.194;6.614;2022-08-19T12:05:43;30.10;95.00
5278;DHT22;2662;51.194;6.614;2022-08-19T12:08:10;30.30;94.70
5278;DHT22;2662;51.194;6.614;2022-08-19T12:10:38;30.50;93.90
5278;DHT22;2662;51.194;6.614;2022-08-19T12:13:06;30.50;93.90
5278;DHT22;2662;51.194;6.614;2022-08-19T12:15:35;30.60;93.70
5278;DHT22;2662;51.194;6.614;2022-08-19T12:18:02;30.60;94.00
5278;DHT22;2662;51.194;6.614;2022-08-19T12:20:30;30.70;94.20
5278;DHT22;2662;51.194;6.614;2022-08-19T12:22:57;30.60;94.00
5278;DHT22;2662;51.194;6.614;2022-08-19T12:25:23;30.70;94.00
5278;DHT22;2662;51.194;6.614;2022-08-19T12:27:50;30.80;93.00
5278;DHT22;2662;51.194;6.614;2022-08-19T12:30:17;30.60;92.60
5278;DHT22;2662;51.194;6.614;2022-08-19T12:32:44;30.70;92.70
5278;DHT22;2662;51.194;6.614;2022-08-19T12:35:10;30.40;93.10
5278;DHT22;2662;51.194;6.614;2022-08-19T12:37:39;30.50;93.30
5278;DHT22;2662;51.194;6.614;2022-08-19T12:40:10;30.60;92.90
5278;DHT22;2662;51.194;6.614;2022-08-19T12:42:38;30.70;92.60
5278;DHT22;2662;51.194;6.614;2022-08-19T12:45:08;30.50;92.60
5278;DHT22;2662;51.194;6.614;2022-08-19T12:47:34;30.50;92.40
5278;DHT22;2662;51.194;6.614;2022-08-19T12:50:02;30.50;92.30
5278;DHT22;2662;51.194;6.614;2022-08-19T12:52:34;30.40;92.10
5278;DHT22;2662;51.194;6.614;2022-08-19T12:55:05;30.50;91.60
5278;DHT22;2662;51.194;6.614;2022-08-19T12:57:32;30.40;91.50
5278;DHT22;2662;51.194;6.614;2022-08-19T13:00:04;30.40;91.50
5278;DHT22;2662;51.194;6.614;2022-08-19T13:02:33;30.20;91.40
5278;DHT22;2662;51.194;6.614;2022-08-19T13:05:00;30.20;91.10
5278;DHT22;2662;51.194;6.614;2022-08-19T13:07:27;30.20;91.10
5278;DHT22;2662;51.194;6.614;2022-08-19T13:09:54;30.20;90.90
5278;DHT22;2662;51.194;6.614;2022-08-19T13:12:22;30.30;91.70
5278;DHT22;2662;51.194;6.614;2022-08-19T13:14:52;30.40;91.80
5278;DHT22;2662;51.194;6.614;2022-08-19T13:17:19;30.50;91.50
5278;DHT22;2662;51.194;6.614;2022-08-19T13:19:46;30.50;91.90
5278;DHT22;2662;51.194;6.614;2022-08-19T13:22:12;30.50;91.50
5278;DHT22;2662;51.194;6.614;2022-08-19T13:24:39;30.40;91.90
5278;DHT22;2662;51.194;6.614;2022-08-19T13:27:06;30.50;91.70
5278;DHT22;2662;51.194;6.614;2022-08-19T13:29:35;30.60;91.90
5278;DHT22;2662;51.194;6.614;2022-08-19T13:32:19;30.80;92.10
5278;DHT22;2662;51.194;6.614;2022-08-19T13:35:03;30.80;91.50
5278;DHT22;2662;51.194;6.614;2022-08-19T13:37:30;30.90;90.60
5278;DHT22;2662;51.194;6.614;2022-08-19T13:40:12;30.70;90.50
5278;DHT22;2662;51.194;6.614;2022-08-19T13:42:41;30.60;89.10
5278;DHT22;2662;51.194;6.614;2022-08-19T13:45:10;30.40;89.20
5278;DHT22;2662;51.194;6.614;2022-08-19T13:47:37;30.40;89.60
5278;DHT22;2662;51.194;6.614;2022-08-19T13:50:10;30.20;89.30
5278;DHT22;2662;51.194;6.614;2022-08-19T13:52:37;30.10;89.20
5278;DHT22;2662;51.194;6.614;2022-08-19T13:55:04;29.80;89.50
5278;DHT22;2662;51.194;6.614;2022-08-19T13:57:32;29.80;89.30
5278;DHT22;2662;51.194;6.614;2022-08-19T13:59:59;29.60;87.70
5278;DHT22;2662;51.194;6.614;2022-08-19T14:02:27;29.50;88.10
5278;DHT22;2662;51.194;6.614;2022-08-19T14:04:54;29.60;88.20
5278;DHT22;2662;51.194;6.614;2022-08-19T14:07:21;29.90;88.80
5278;DHT22;2662;51.194;6.614;2022-08-19T14:09:48;30.00;87.80
5278;DHT22;2662;51.194;6.614;2022-08-19T14:12:18;30.10;86.80
5278;DHT22;2662;51.194;6.614;2022-08-19T14:14:45;30.10;85.90
5278;DHT22;2662;51.194;6.614;2022-08-19T14:17:12;30.10;86.40
5278;DHT22;2662;51.194;6.614;2022-08-19T14:19:41;30.10;86.30
5278;DHT22;2662;51.194;6.614;2022-08-19T14:22:08;30.10;85.20
5278;DHT22;2662;51.194;6.614;2022-08-19T14:24:37;30.20;84.90
5278;DHT22;2662;51.194;6.614;2022-08-19T14:27:04;30.30;88.00
5278;DHT22;2662;51.194;6.614;2022-08-19T14:29:30;30.40;89.10
5278;DHT22;2662;51.194;6.614;2022-08-19T14:31:57;30.40;89.20
5278;DHT22;2662;51.194;6.614;2022-08-19T14:34:25;30.60;89.30
5278;DHT22;2662;51.194;6.614;2022-08-19T14:36:53;30.60;88.60
5278;DHT22;2662;51.194;6.614;2022-08-19T14:39:20;30.50;88.90
5278;DHT22;2662;51.194;6.614;2022-08-19T14:41:47;30.50;90.00
5278;DHT22;2662;51.194;6.614;2022-08-19T14:44:14;30.50;89.70
5278;DHT22;2662;51.194;6.614;2022-08-19T14:46:40;30.60;88.80
5278;DHT22;2662;51.194;6.614;2022-08-19T14:49:07;30.60;88.90
5278;DHT22;2662;51.194;6.614;2022-08-19T14:51:34;30.60;90.00
5278;DHT22;2662;51.194;6.614;2022-08-19T14:54:02;30.60;90.40
5278;DHT22;2662;51.194;6.614;2022-08-19T14:56:29;30.60;90.70
5278;DHT22;2662;51.194;6.614;2022-08-19T14:58:56;30.40;90.90
5278;DHT22;2662;51.194;6.614;2022-08-19T15:01:26;30.20;91.50
5278;DHT22;2662;51.194;6.614;2022-08-19T15:03:53;30.20;91.90
5278;DHT22;2662;51.194;6.614;2022-08-19T15:06:20;30.00;92.40
5278;DHT22;2662;51.194;6.614;2022-08-19T15:08:47;29.70;92.90
5278;DHT22;2662;51.194;6.614;2022-08-19T15:11:19;29.60;92.90
5278;DHT22;2662;51.194;6.614;2022-08-19T15:13:47;29.50;93.70
5278;DHT22;2662;51.194;6.614;2022-08-19T15:16:14;29.60;93.90
5278;DHT22;2662;51.194;6.614;2022-08-19T15:18:42;29.50;94.50
5278;DHT22;2662;51.194;6.614;2022-08-19T15:21:10;29.70;94.40
5278;DHT22;2662;51.194;6.614;2022-08-19T15:23:38;29.90;94.20
5278;DHT22;2662;51.194;6.614;2022-08-19T15:26:06;30.10;94.30
5278;DHT22;2662;51.194;6.614;2022-08-19T15:28:35;30.00;94.50
5278;DHT22;2662;51.194;6.614;2022-08-19T15:31:03;29.90;95.30
5278;DHT22;2662;51.194;6.614;2022-08-19T15:33:30;29.80;96.10
5278;DHT22;2662;51.194;6.614;2022-08-19T15:35:57;29.90;95.20
5278;DHT22;2662;51.194;6.614;2022-08-19T15:38:24;29.90;95.10
5278;DHT22;2662;51.194;6.614;2022-08-19T15:40:51;29.80;95.50
5278;DHT22;2662;51.194;6.614;2022-08-19T15:43:19;29.70;96.50
5278;DHT22;2662;51.194;6.614;2022-08-19T15:45:49;29.70;96.70
5278;DHT22;2662;51.194;6.614;2022-08-19T15:48:15;29.60;96.40
5278;DHT22;2662;51.194;6.614;2022-08-19T15:50:42;29.30;97.10
5278;DHT22;2662;51.194;6.614;2022-08-19T15:53:10;28.80;98.20
5278;DHT22;2662;51.194;6.614;2022-08-19T15:55:42;28.70;99.20
5278;DHT22;2662;51.194;6.614;2022-08-19T15:58:11;28.50;99.90
5278;DHT22;2662;51.194;6.614;2022-08-19T16:00:58;28.40;99.90
5278;DHT22;2662;51.194;6.614;2022-08-19T16:03:43;28.30;99.90
5278;DHT22;2662;51.194;6.614;2022-08-19T16:06:28;28.00;99.90
5278;DHT22;2662;51.194;6.614;2022-08-19T16:08:57;28.00;99.90
5278;DHT22;2662;51.194;6.614;2022-08-19T16:11:28;28.10;99.90